createdAt,value
2022-10-02T00:03:57.746Z,65.96
2022-10-02T00:09:28.943Z,65.63
2022-10-02T00:14:21.832Z,66.00
2022-10-02T00:19:21.739Z,66.16
2022-10-02T00:24:21.719Z,66.20
2022-10-02T00:29:21.674Z,66.22
2022-10-02T00:34:21.537Z,66.22
2022-10-02T00:39:21.485Z,66.23
2022-10-02T00:44:21.409Z,66.24
2022-10-02T00:49:21.356Z,66.29
2022-10-02T00:54:21.275Z,66.36
2022-10-02T00:59:21.212Z,66.38
2022-10-02T01:04:21.152Z,66.38
2022-10-02T01:09:21.070Z,66.40
2022-10-02T01:14:21.020Z,66.43
2022-10-02T01:19:20.936Z,66.48
2022-10-02T01:24:20.883Z,66.52
2022-10-02T01:29:20.793Z,66.59
2022-10-02T01:34:20.747Z,66.63
2022-10-02T01:39:20.678Z,66.65
2022-10-02T01:44:20.599Z,66.68
2022-10-02T01:49:20.531Z,66.72
2022-10-02T01:54:20.471Z,66.74
2022-10-02T01:59:20.398Z,66.77
2022-10-02T02:04:20.332Z,66.80
2022-10-02T02:09:20.278Z,66.83
2022-10-02T02:14:20.313Z,66.86
2022-10-02T02:19:20.137Z,66.90
2022-10-02T02:24:20.051Z,66.94
2022-10-02T02:29:20.019Z,66.96
2022-10-02T02:34:19.937Z,67.02
2022-10-02T02:39:19.899Z,67.08
2022-10-02T02:44:19.777Z,67.12
2022-10-02T02:49:19.718Z,67.16
2022-10-02T02:54:19.685Z,67.19
2022-10-02T02:59:19.597Z,67.24
2022-10-02T03:04:19.531Z,67.29
2022-10-02T03:09:19.439Z,67.31
2022-10-02T03:14:19.381Z,67.34
2022-10-02T03:19:19.319Z,67.37
2022-10-02T03:24:19.216Z,67.40
2022-10-02T03:29:19.176Z,67.42
2022-10-02T03:34:19.110Z,67.47
2022-10-02T03:39:26.455Z,67.48
2022-10-02T03:44:19.993Z,67.53
2022-10-02T03:49:18.910Z,67.55
2022-10-02T03:54:18.849Z,67.57
2022-10-02T03:59:18.787Z,67.60
2022-10-02T04:04:18.711Z,67.65
2022-10-02T04:09:18.617Z,67.66
2022-10-02T04:14:18.677Z,67.72
2022-10-02T04:19:18.504Z,67.70
2022-10-02T04:24:18.464Z,67.75
2022-10-02T04:29:18.553Z,67.77
2022-10-02T04:34:19.060Z,67.82
2022-10-02T04:39:18.239Z,67.85
2022-10-02T04:44:18.153Z,67.87
2022-10-02T04:49:18.100Z,67.90
2022-10-02T04:54:18.013Z,67.95
2022-10-02T04:59:17.989Z,67.99
2022-10-02T05:04:17.894Z,68.01
2022-10-02T05:09:17.825Z,68.04
2022-10-02T05:14:17.763Z,68.08
2022-10-02T05:19:17.684Z,68.13
2022-10-02T05:24:17.627Z,68.13
2022-10-02T05:29:17.553Z,68.17
2022-10-02T05:34:17.493Z,68.22
2022-10-02T05:39:17.408Z,68.23
2022-10-02T05:44:17.352Z,68.24
2022-10-02T05:49:17.411Z,68.28
2022-10-02T05:54:17.214Z,68.33
2022-10-02T05:59:17.151Z,68.36
2022-10-02T06:04:28.357Z,68.04
2022-10-02T06:09:20.768Z,68.42
2022-10-02T06:14:20.689Z,68.54
2022-10-02T06:19:20.640Z,68.57
2022-10-02T06:24:20.550Z,68.57
2022-10-02T06:29:23.707Z,68.57
2022-10-02T06:34:21.401Z,68.41
2022-10-02T06:39:20.360Z,68.38
2022-10-02T06:44:20.264Z,68.39
2022-10-02T06:49:20.289Z,68.42
2022-10-02T06:54:20.143Z,68.33
2022-10-02T06:59:20.074Z,68.29
2022-10-02T07:04:19.977Z,68.35
2022-10-02T07:09:19.979Z,68.41
2022-10-02T07:14:19.988Z,68.50
2022-10-02T07:19:19.809Z,68.36
2022-10-02T07:24:19.741Z,68.45
2022-10-02T07:29:19.671Z,68.44
2022-10-02T07:34:19.604Z,68.43
2022-10-02T07:39:19.802Z,68.51
2022-10-02T07:44:19.484Z,68.71
2022-10-02T07:49:19.397Z,68.70
2022-10-02T07:54:19.327Z,68.59
2022-10-02T07:59:19.236Z,68.56
2022-10-02T08:04:19.197Z,68.37
2022-10-02T08:09:19.138Z,68.16
2022-10-02T08:14:19.064Z,67.92
2022-10-02T08:19:19.100Z,67.82
2022-10-02T08:24:18.906Z,67.72
2022-10-02T08:29:18.857Z,67.60
2022-10-02T08:34:18.908Z,67.41
2022-10-02T08:39:18.738Z,67.19
2022-10-02T08:44:18.657Z,67.01
2022-10-02T08:49:18.599Z,66.98
2022-10-02T08:54:18.540Z,67.06
2022-10-02T08:59:18.664Z,66.97
2022-10-02T09:04:18.391Z,66.85
2022-10-02T09:09:18.328Z,66.81
2022-10-02T09:14:18.250Z,66.84
2022-10-02T09:19:18.168Z,66.57
2022-10-02T09:24:18.927Z,66.35
2022-10-02T09:29:18.043Z,66.32
2022-10-02T09:34:18.929Z,66.26
2022-10-02T09:39:19.676Z,65.96
2022-10-02T09:44:17.844Z,65.44
2022-10-02T09:49:17.802Z,65.66
2022-10-02T09:54:17.724Z,66.24
2022-10-02T09:59:17.629Z,66.56
2022-10-02T10:04:17.555Z,66.42
2022-10-02T10:09:17.548Z,65.87
2022-10-02T10:14:17.444Z,64.92
2022-10-02T10:19:17.370Z,64.63
2022-10-02T10:24:17.328Z,63.88
2022-10-02T10:29:17.201Z,64.13
2022-10-02T10:34:17.196Z,64.81
2022-10-02T10:39:17.113Z,65.35
2022-10-02T10:44:17.015Z,65.61
2022-10-02T10:49:17.105Z,65.86
2022-10-02T10:54:16.870Z,65.67
2022-10-02T10:59:16.838Z,65.95
2022-10-02T11:04:16.769Z,66.00
2022-10-02T11:09:16.879Z,66.03
2022-10-02T11:14:16.623Z,65.71
2022-10-02T11:19:21.202Z,65.45
2022-10-02T11:24:17.493Z,64.71
2022-10-02T11:29:16.452Z,64.17
2022-10-02T11:34:16.372Z,64.17
2022-10-02T11:39:16.317Z,64.33
2022-10-02T11:44:16.238Z,64.42
2022-10-02T11:49:16.192Z,64.43
2022-10-02T11:54:16.096Z,64.54
2022-10-02T11:59:16.093Z,64.76
2022-10-02T12:04:15.975Z,64.51
2022-10-02T12:09:15.895Z,64.33
2022-10-02T12:14:15.835Z,64.58
2022-10-02T12:19:15.821Z,64.82
2022-10-02T12:24:15.708Z,64.57
2022-10-02T12:29:15.609Z,64.27
2022-10-02T12:34:15.533Z,63.87
2022-10-02T12:39:18.816Z,64.15
2022-10-02T12:44:16.419Z,64.29
2022-10-02T12:49:15.385Z,64.02
2022-10-02T12:54:15.347Z,63.48
2022-10-02T12:59:15.212Z,62.85
2022-10-02T13:04:15.140Z,62.64
2022-10-02T13:09:15.115Z,62.42
2022-10-02T13:14:14.993Z,62.21
2022-10-02T13:19:15.829Z,61.75
2022-10-02T13:24:14.871Z,63.00
2022-10-02T13:29:14.827Z,63.71
2022-10-02T13:34:14.708Z,63.99
2022-10-02T13:39:14.667Z,63.96
2022-10-02T13:44:14.594Z,64.02
2022-10-02T13:49:14.534Z,63.99
2022-10-02T13:54:14.469Z,63.58
2022-10-02T13:59:14.394Z,63.34
2022-10-02T14:04:14.433Z,63.34
2022-10-02T14:09:14.254Z,63.38
2022-10-02T14:14:14.190Z,63.49
2022-10-02T14:19:14.151Z,63.53
2022-10-02T14:24:14.054Z,63.63
2022-10-02T14:29:13.995Z,63.72
2022-10-02T14:34:13.929Z,63.91
2022-10-02T14:39:13.918Z,64.05
2022-10-02T14:44:13.789Z,64.12
2022-10-02T14:49:13.720Z,64.22
2022-10-02T14:54:13.638Z,64.36
2022-10-02T14:59:13.632Z,64.55
2022-10-02T15:04:13.616Z,64.70
2022-10-02T15:09:13.495Z,64.77
2022-10-02T15:14:13.383Z,64.82
2022-10-02T15:19:13.309Z,64.90
2022-10-02T15:24:13.329Z,65.02
2022-10-02T15:29:13.234Z,65.18
2022-10-02T15:34:13.152Z,65.28
2022-10-02T15:39:14.025Z,65.43
2022-10-02T15:44:12.996Z,65.54
2022-10-02T15:49:12.944Z,65.64
2022-10-02T15:54:12.873Z,65.73
2022-10-02T15:59:12.851Z,65.83
2022-10-02T16:04:12.746Z,65.96
2022-10-02T16:09:12.640Z,66.07
2022-10-02T16:14:12.566Z,66.16
2022-10-02T16:19:12.531Z,66.32
2022-10-02T16:24:12.445Z,66.48
2022-10-02T16:29:12.360Z,66.57
2022-10-02T16:34:12.676Z,66.70
2022-10-02T16:39:12.279Z,66.90
2022-10-02T16:44:12.132Z,67.10
2022-10-02T16:49:12.101Z,67.29
2022-10-02T16:54:12.028Z,67.49
2022-10-02T16:59:11.974Z,67.71
2022-10-02T17:04:11.887Z,67.86
2022-10-02T17:09:11.854Z,68.01
2022-10-02T17:14:11.739Z,68.16
2022-10-02T17:19:11.690Z,68.31
2022-10-02T17:24:11.660Z,68.39
2022-10-02T17:29:11.549Z,68.49
2022-10-02T17:34:11.497Z,68.61
2022-10-02T17:39:11.419Z,68.70
2022-10-02T17:44:11.346Z,68.79
2022-10-02T17:49:11.278Z,68.85
2022-10-02T17:54:11.206Z,68.93
2022-10-02T17:59:11.164Z,68.98
2022-10-02T18:04:11.075Z,69.05
2022-10-02T18:09:11.015Z,69.15
2022-10-02T18:14:10.942Z,69.20
2022-10-02T18:19:10.881Z,69.25
2022-10-02T18:24:10.827Z,69.32
2022-10-02T18:29:10.744Z,69.37
2022-10-02T18:34:11.706Z,69.41
2022-10-02T18:39:10.632Z,69.45
2022-10-02T18:44:10.545Z,69.51
2022-10-02T18:49:10.489Z,69.55
2022-10-02T18:54:10.405Z,69.59
2022-10-02T18:59:10.353Z,69.61
2022-10-02T19:04:10.274Z,69.63
2022-10-02T19:09:10.209Z,69.64
2022-10-02T19:14:10.151Z,69.65
2022-10-02T19:19:10.075Z,69.67
2022-10-02T19:24:10.003Z,69.72
2022-10-02T19:29:09.947Z,69.72
2022-10-02T19:34:09.940Z,69.77
2022-10-02T19:39:09.772Z,69.81
2022-10-02T19:44:11.015Z,69.86
2022-10-02T19:49:09.665Z,69.89
2022-10-02T19:54:09.601Z,69.93
2022-10-02T19:59:09.543Z,69.97
2022-10-02T20:04:09.444Z,69.99
2022-10-02T20:09:09.410Z,70.05
2022-10-02T20:14:09.388Z,70.12
2022-10-02T20:19:09.281Z,70.20
2022-10-02T20:24:09.185Z,70.28
2022-10-02T20:29:09.124Z,70.33
2022-10-02T20:34:09.064Z,70.40
2022-10-02T20:39:09.007Z,70.48
2022-10-02T20:44:10.123Z,70.53
2022-10-02T20:49:09.611Z,70.59
2022-10-02T20:54:08.833Z,70.64
2022-10-02T20:59:08.698Z,70.68
2022-10-02T21:04:09.484Z,70.69
2022-10-02T21:09:10.260Z,70.72
2022-10-02T21:14:08.500Z,70.76
2022-10-02T21:19:10.278Z,70.76
2022-10-02T21:24:08.401Z,70.78
2022-10-02T21:29:08.551Z,70.83
2022-10-02T21:34:08.222Z,70.87
2022-10-02T21:39:08.170Z,70.89
2022-10-02T21:44:08.147Z,70.92
2022-10-02T21:49:08.054Z,70.94
2022-10-02T21:54:08.035Z,70.92
2022-10-02T21:59:07.913Z,70.89
2022-10-02T22:04:07.851Z,70.87
2022-10-02T22:09:07.748Z,70.85
2022-10-02T22:14:07.706Z,70.87
2022-10-02T22:19:07.649Z,70.85
2022-10-02T22:24:07.638Z,70.87
2022-10-02T22:29:07.498Z,70.94
2022-10-02T22:34:08.248Z,71.00
2022-10-02T22:39:07.366Z,71.06
2022-10-02T22:44:07.301Z,71.04
2022-10-02T22:49:07.239Z,71.09
2022-10-02T22:54:07.189Z,71.17
2022-10-02T22:59:07.094Z,71.19
2022-10-02T23:04:07.025Z,71.23
2022-10-02T23:09:06.965Z,71.27
2022-10-02T23:14:06.883Z,71.32
2022-10-02T23:19:06.817Z,71.34
2022-10-02T23:24:06.753Z,71.39
2022-10-02T23:29:06.677Z,71.44
2022-10-02T23:34:06.617Z,71.45
2022-10-02T23:39:06.550Z,71.51
2022-10-02T23:44:06.493Z,71.52
2022-10-02T23:49:06.423Z,71.53
2022-10-02T23:54:06.340Z,71.56
2022-10-02T23:59:06.278Z,71.60
